Lindon, Colorado
Current Conditions -  °F | °C
As of 8:53 PM on Saturday 25 Oct 2014 (Local Time) from KAKO Reporting Station
Clear Clear  
Wind Chill: 59°   Ceiling: Unl
Heat Index: 59°   Visibility: 10mi
Dew Point: 34°   Wind: 8mph
Humidity: 39%   Direction: 120°ESE
Pressure: 30.02"   Gusts: NA
Location:  39.74°N, 103.41°W
Report Text: KAKO 260253Z AUTO 12007KT 10SM CLR 15/01 A3002 RMK AO2 SLP134 T01500011 56007
Loading
Personal Weather Stations






























Interactive Weather Map
Tropical Storm Tracking
New forecast layout! Learn more

10-Day Weather Forecast

Advertisements
Track Severe Weather on mobile